createdAt,value
2023-04-09T00:01:45.731Z,88.39
2023-04-09T00:03:48.943Z,88.71
2023-04-09T00:05:52.429Z,88.02
2023-04-09T00:07:55.792Z,89.56
2023-04-09T00:09:58.814Z,89.21
2023-04-09T00:12:02.096Z,89.09
2023-04-09T00:14:05.164Z,88.53
2023-04-09T00:16:09.831Z,88.83
2023-04-09T00:18:12.945Z,88.79
2023-04-09T00:20:16.043Z,88.02
2023-04-09T00:22:19.137Z,88.37
2023-04-09T00:24:22.164Z,88.90
2023-04-09T00:26:25.886Z,88.98
2023-04-09T00:28:28.918Z,88.43
2023-04-09T00:30:32.321Z,88.93
2023-04-09T00:32:36.720Z,89.26
2023-04-09T00:34:39.794Z,88.58
2023-04-09T00:36:42.966Z,88.87
2023-04-09T00:38:46.548Z,88.39
2023-04-09T00:40:50.381Z,88.91
2023-04-09T00:42:53.387Z,88.89
2023-04-09T00:44:56.412Z,88.62
2023-04-09T00:47:00.809Z,88.89
2023-04-09T00:49:05.403Z,89.33
2023-04-09T00:51:09.301Z,88.91
2023-04-09T00:53:13.820Z,89.52
2023-04-09T00:55:16.932Z,88.39
2023-04-09T00:57:20.374Z,89.27
2023-04-09T00:59:23.916Z,88.96
2023-04-09T01:01:27.070Z,89.49
2023-04-09T01:03:31.088Z,88.75
2023-04-09T01:05:41.380Z,89.27
2023-04-09T01:07:54.722Z,89.30
2023-04-09T01:10:03.389Z,88.95
2023-04-09T01:12:17.339Z,88.96
2023-04-09T01:14:26.452Z,89.01
2023-04-09T01:16:34.091Z,89.84
2023-04-09T01:18:41.220Z,89.68
2023-04-09T01:20:51.082Z,88.36
2023-04-09T01:22:59.298Z,89.46
2023-04-09T01:25:11.054Z,88.47
2023-04-09T01:27:19.925Z,89.36
2023-04-09T01:29:35.948Z,89.56
2023-04-09T01:31:40.432Z,89.37
2023-04-09T01:33:44.144Z,89.41
2023-04-09T01:35:48.926Z,88.76
2023-04-09T01:37:53.518Z,90.14
2023-04-09T01:39:57.101Z,88.63
2023-04-09T01:42:02.006Z,89.76
2023-04-09T01:44:06.213Z,89.46
2023-04-09T01:46:12.227Z,90.20
2023-04-09T01:48:16.472Z,89.52
2023-04-09T01:50:20.408Z,89.07
2023-04-09T01:52:24.250Z,90.69
2023-04-09T01:54:27.978Z,89.38
2023-04-09T01:56:41.403Z,89.97
2023-04-09T01:58:45.332Z,90.72
2023-04-09T02:00:49.916Z,90.10
2023-04-09T02:02:58.990Z,90.46
2023-04-09T02:05:05.275Z,90.29
2023-04-09T02:07:14.202Z,90.31
2023-04-09T02:09:20.099Z,89.10
2023-04-09T02:11:24.952Z,89.07
2023-04-09T02:13:29.491Z,89.09
2023-04-09T02:15:33.229Z,90.16
2023-04-09T02:17:36.981Z,89.47
2023-04-09T02:19:43.174Z,89.48
2023-04-09T02:21:47.378Z,89.99
2023-04-09T02:23:51.041Z,90.19
2023-04-09T02:25:55.468Z,90.85
2023-04-09T02:27:59.019Z,90.94
2023-04-09T02:30:02.543Z,89.37
2023-04-09T02:32:07.113Z,90.04
2023-04-09T02:34:11.070Z,89.83
2023-04-09T02:36:15.831Z,89.67
2023-04-09T02:38:20.036Z,89.00
2023-04-09T02:40:23.726Z,90.68
2023-04-09T02:42:27.608Z,89.25
2023-04-09T02:44:31.234Z,90.48
2023-04-09T02:46:35.070Z,90.33
2023-04-09T02:48:39.405Z,89.58
2023-04-09T02:50:42.852Z,90.53
2023-04-09T02:52:48.890Z,89.81
2023-04-09T02:54:52.797Z,88.42
2023-04-09T02:56:56.327Z,89.86
2023-04-09T02:58:59.492Z,88.71
2023-04-09T03:01:02.505Z,89.54
2023-04-09T03:03:05.727Z,88.61
2023-04-09T03:05:09.336Z,88.52
2023-04-09T03:07:12.694Z,88.94
2023-04-09T03:09:17.299Z,89.26
2023-04-09T03:11:20.452Z,88.03
2023-04-09T03:13:23.509Z,88.67
2023-04-09T03:15:26.626Z,88.70
2023-04-09T03:17:31.966Z,88.22
2023-04-09T03:19:35.165Z,88.61
2023-04-09T03:21:38.472Z,88.93
2023-04-09T03:23:42.097Z,88.26
2023-04-09T03:25:46.474Z,88.48
2023-04-09T03:27:54.011Z,88.33
2023-04-09T03:30:07.821Z,88.40
2023-04-09T03:32:18.956Z,88.85
2023-04-09T03:34:22.264Z,88.29
2023-04-09T03:36:28.995Z,89.01
2023-04-09T03:38:38.124Z,87.59
2023-04-09T03:40:48.419Z,87.64
2023-04-09T03:42:51.583Z,88.08
2023-04-09T03:44:55.293Z,88.81
2023-04-09T03:47:08.885Z,88.48
2023-04-09T03:49:13.883Z,88.24
2023-04-09T03:51:19.478Z,88.67
2023-04-09T03:53:28.169Z,88.17
2023-04-09T03:55:38.851Z,88.71
2023-04-09T03:57:50.445Z,88.61
2023-04-09T03:59:55.963Z,88.83
2023-04-09T04:02:00.202Z,89.32
2023-04-09T04:04:04.163Z,90.00
2023-04-09T04:06:12.520Z,89.02
2023-04-09T04:08:38.518Z,89.33
2023-04-09T04:10:41.974Z,89.96
2023-04-09T04:12:46.962Z,89.25
2023-04-09T04:15:00.480Z,89.21
2023-04-09T04:17:12.007Z,90.30
2023-04-09T04:19:15.536Z,89.43
2023-04-09T04:21:22.727Z,90.56
2023-04-09T04:23:33.193Z,90.19
2023-04-09T04:25:53.101Z,90.48
2023-04-09T04:28:02.595Z,89.20
2023-04-09T04:30:14.901Z,89.54
2023-04-09T04:32:31.072Z,89.99
2023-04-09T04:34:38.033Z,90.59
2023-04-09T04:36:48.768Z,89.13
2023-04-09T04:38:53.921Z,90.25
2023-04-09T04:41:12.324Z,90.45
2023-04-09T04:43:20.074Z,90.01
2023-04-09T04:45:25.392Z,89.74
2023-04-09T04:47:33.758Z,89.39
2023-04-09T04:49:36.881Z,89.00
2023-04-09T04:51:42.319Z,90.18
2023-04-09T04:53:48.560Z,89.16
2023-04-09T04:55:51.642Z,90.27
2023-04-09T04:58:00.069Z,90.04
2023-04-09T05:00:08.711Z,89.34
2023-04-09T05:02:14.470Z,88.83
2023-04-09T05:04:40.862Z,89.78
2023-04-09T05:06:47.598Z,89.83
2023-04-09T05:08:58.054Z,88.58
2023-04-09T05:11:03.408Z,89.13
2023-04-09T05:13:11.777Z,89.76
2023-04-09T05:15:15.156Z,89.51
2023-04-09T05:17:19.719Z,89.54
2023-04-09T05:19:22.765Z,89.48
2023-04-09T05:21:32.743Z,89.48
2023-04-09T05:23:37.586Z,89.88
2023-04-09T05:25:40.831Z,89.51
2023-04-09T05:27:49.629Z,90.56
2023-04-09T05:29:52.672Z,89.07
2023-04-09T05:31:55.921Z,88.72
2023-04-09T05:34:18.342Z,89.88
2023-04-09T05:36:28.731Z,90.11
2023-04-09T05:38:31.994Z,90.07
2023-04-09T05:40:35.525Z,90.90
2023-04-09T05:42:41.365Z,90.95
2023-04-09T05:44:59.713Z,90.94
2023-04-09T05:47:03.235Z,89.40
2023-04-09T05:49:18.673Z,88.53
2023-04-09T05:51:24.804Z,87.56
2023-04-09T05:53:27.959Z,86.30
2023-04-09T05:55:32.259Z,86.97
2023-04-09T05:57:37.168Z,84.55
2023-04-09T05:59:40.929Z,83.41
2023-04-09T06:01:44.091Z,81.39
2023-04-09T06:03:47.265Z,80.68
2023-04-09T06:05:52.037Z,79.77
2023-04-09T06:07:55.139Z,80.58
2023-04-09T06:09:58.162Z,76.21
2023-04-09T06:12:01.166Z,75.44
2023-04-09T06:14:04.195Z,76.18
2023-04-09T06:16:08.418Z,76.77
2023-04-09T06:18:11.975Z,74.77
2023-04-09T06:20:15.318Z,75.48
2023-04-09T06:22:19.789Z,74.53
2023-04-09T06:24:22.800Z,74.32
2023-04-09T06:26:26.198Z,73.16
2023-04-09T06:28:30.139Z,75.25
2023-04-09T06:30:33.267Z,73.04
2023-04-09T06:32:46.912Z,72.36
2023-04-09T06:34:54.379Z,72.65
2023-04-09T06:36:57.570Z,72.52
2023-04-09T06:39:02.054Z,71.41
2023-04-09T06:41:08.378Z,68.78
2023-04-09T06:43:11.946Z,71.09
2023-04-09T06:45:21.679Z,69.64
2023-04-09T06:47:25.054Z,69.85
2023-04-09T06:49:28.159Z,69.81
2023-04-09T06:51:31.772Z,69.91
2023-04-09T06:53:35.141Z,66.75
2023-04-09T06:55:40.102Z,68.27
2023-04-09T06:57:43.229Z,68.81
2023-04-09T06:59:46.312Z,68.49
2023-04-09T07:01:50.024Z,66.76
2023-04-09T07:03:54.713Z,67.03
2023-04-09T07:05:58.204Z,65.92
2023-04-09T07:08:01.466Z,66.26
2023-04-09T07:10:04.678Z,65.01
2023-04-09T07:12:09.090Z,64.87
2023-04-09T07:14:12.174Z,67.24
2023-04-09T07:16:15.377Z,68.11
2023-04-09T07:18:18.482Z,66.51
2023-04-09T07:20:21.600Z,66.05
2023-04-09T07:22:26.709Z,65.04
2023-04-09T07:24:29.858Z,65.02
2023-04-09T07:26:33.393Z,63.09
2023-04-09T07:28:37.795Z,63.85
2023-04-09T07:30:42.146Z,61.60
2023-04-09T07:32:45.407Z,65.14
2023-04-09T07:34:48.438Z,61.97
2023-04-09T07:36:52.172Z,64.50
2023-04-09T07:38:55.494Z,62.14
2023-04-09T07:40:58.566Z,60.91
2023-04-09T07:43:01.919Z,61.68
2023-04-09T07:45:07.972Z,62.07
2023-04-09T07:47:12.887Z,62.03
2023-04-09T07:49:16.409Z,62.36
2023-04-09T07:51:19.753Z,61.37
2023-04-09T07:53:22.914Z,61.61
2023-04-09T07:55:26.031Z,60.98
2023-04-09T07:57:29.188Z,61.21
2023-04-09T07:59:32.574Z,62.02
2023-04-09T08:01:37.221Z,62.82
2023-04-09T08:03:40.785Z,62.17
2023-04-09T08:05:44.327Z,62.22
2023-04-09T08:07:47.586Z,61.66
2023-04-09T08:09:50.847Z,62.75
2023-04-09T08:11:54.131Z,61.51
2023-04-09T08:13:58.284Z,59.20
2023-04-09T08:16:01.939Z,58.68
2023-04-09T08:18:06.535Z,59.66
2023-04-09T08:20:10.625Z,59.04
2023-04-09T08:22:13.795Z,57.23
2023-04-09T08:24:16.933Z,58.01
2023-04-09T08:26:20.238Z,59.45
2023-04-09T08:28:23.371Z,60.17
2023-04-09T08:30:26.562Z,58.86
2023-04-09T08:32:29.814Z,60.34
2023-04-09T08:34:34.352Z,58.81
2023-04-09T08:36:37.760Z,59.19
2023-04-09T08:38:41.947Z,60.12
2023-04-09T08:40:45.043Z,57.92
2023-04-09T08:42:48.919Z,58.13
2023-04-09T08:44:52.212Z,58.58
2023-04-09T08:46:56.568Z,58.22
2023-04-09T08:49:01.364Z,56.94
2023-04-09T08:51:06.435Z,57.70
2023-04-09T08:53:10.614Z,56.76
2023-04-09T08:55:13.944Z,58.04
2023-04-09T08:57:17.712Z,57.07
2023-04-09T08:59:20.938Z,58.39
2023-04-09T09:01:25.075Z,58.75
2023-04-09T09:03:28.501Z,57.37
2023-04-09T09:05:38.831Z,58.15
2023-04-09T09:07:54.667Z,54.07
2023-04-09T09:09:59.074Z,57.14
2023-04-09T09:12:02.857Z,56.72
2023-04-09T09:14:07.495Z,56.79
2023-04-09T09:16:14.936Z,56.16
2023-04-09T09:18:19.340Z,58.04
2023-04-09T09:20:23.534Z,55.76
2023-04-09T09:22:26.967Z,58.65
2023-04-09T09:24:32.291Z,56.60
2023-04-09T09:26:39.531Z,56.18
2023-04-09T09:28:42.872Z,56.21
2023-04-09T09:30:49.304Z,57.95
2023-04-09T09:32:54.110Z,56.47
2023-04-09T09:35:03.000Z,57.75
2023-04-09T09:37:27.788Z,54.51
2023-04-09T09:39:44.330Z,55.95
2023-04-09T09:41:48.835Z,55.13
2023-04-09T09:43:52.549Z,55.95
2023-04-09T09:45:55.717Z,54.69
2023-04-09T09:47:58.837Z,54.10
2023-04-09T09:50:01.910Z,56.85
2023-04-09T09:52:09.085Z,54.87
2023-04-09T09:54:12.936Z,53.87
2023-04-09T09:56:20.773Z,53.21
2023-04-09T09:58:26.097Z,53.14
2023-04-09T10:00:30.420Z,52.19
2023-04-09T10:02:38.819Z,53.93
2023-04-09T10:04:42.631Z,53.30
2023-04-09T10:06:47.057Z,54.21
2023-04-09T10:08:51.193Z,53.43
2023-04-09T10:10:54.450Z,53.17
2023-04-09T10:12:59.370Z,51.87
2023-04-09T10:15:04.998Z,53.03
2023-04-09T10:17:08.547Z,53.28
2023-04-09T10:19:14.183Z,52.24
2023-04-09T10:21:27.762Z,52.54
2023-04-09T10:23:34.935Z,51.14
2023-04-09T10:25:38.006Z,49.48
2023-04-09T10:27:42.493Z,50.61
2023-04-09T10:29:48.570Z,53.49
2023-04-09T10:31:53.855Z,52.96
2023-04-09T10:34:05.067Z,52.01
2023-04-09T10:36:14.223Z,53.47
2023-04-09T10:38:17.417Z,52.37
2023-04-09T10:40:21.753Z,53.23
2023-04-09T10:42:27.410Z,51.08
2023-04-09T10:44:31.846Z,53.47
2023-04-09T10:46:37.600Z,53.23
2023-04-09T10:48:40.755Z,52.36
2023-04-09T10:50:45.232Z,54.21
2023-04-09T10:52:48.768Z,51.72
2023-04-09T10:54:54.738Z,53.18
2023-04-09T10:57:20.827Z,51.15
2023-04-09T10:59:23.986Z,52.94
2023-04-09T11:01:28.290Z,53.60
2023-04-09T11:03:36.858Z,53.56
2023-04-09T11:05:41.163Z,53.35
2023-04-09T11:07:46.657Z,54.31
2023-04-09T11:09:49.802Z,53.48
2023-04-09T11:11:54.241Z,52.19
2023-04-09T11:14:00.133Z,53.08
2023-04-09T11:16:06.858Z,53.04
2023-04-09T11:18:12.027Z,51.31
2023-04-09T11:20:18.336Z,51.04
2023-04-09T11:22:21.587Z,51.83
2023-04-09T11:24:25.046Z,52.76
2023-04-09T11:26:37.546Z,51.46
2023-04-09T11:28:43.739Z,51.89
2023-04-09T11:30:48.010Z,52.25
2023-04-09T11:32:51.398Z,52.75
2023-04-09T11:34:54.612Z,51.46
2023-04-09T11:36:59.901Z,53.01
2023-04-09T11:39:03.992Z,53.01
2023-04-09T11:41:07.220Z,52.17
2023-04-09T11:43:10.453Z,51.47
2023-04-09T11:45:14.207Z,51.91
2023-04-09T11:47:18.106Z,52.24
2023-04-09T11:49:21.297Z,51.34
2023-04-09T11:51:24.650Z,51.71
2023-04-09T11:53:32.062Z,51.86
2023-04-09T11:55:35.242Z,52.91
2023-04-09T11:57:40.618Z,51.57
2023-04-09T11:59:43.724Z,52.71
2023-04-09T12:01:50.952Z,51.80
2023-04-09T12:03:54.606Z,51.44
2023-04-09T12:05:58.718Z,53.39
2023-04-09T12:08:04.974Z,52.49
2023-04-09T12:10:11.425Z,52.28
2023-04-09T12:12:19.610Z,52.04
2023-04-09T12:14:23.244Z,53.71
2023-04-09T12:16:26.532Z,51.27
2023-04-09T12:18:29.919Z,52.68
2023-04-09T12:20:34.988Z,52.84
2023-04-09T12:22:40.872Z,52.64
2023-04-09T12:24:44.111Z,53.90
2023-04-09T12:26:49.032Z,53.44
2023-04-09T12:28:52.237Z,54.76
2023-04-09T12:30:55.857Z,54.42
2023-04-09T12:32:59.459Z,53.54
2023-04-09T12:35:02.958Z,53.16
2023-04-09T12:37:05.959Z,52.92
2023-04-09T12:39:09.984Z,54.96
2023-04-09T12:41:13.386Z,53.32
2023-04-09T12:43:17.810Z,52.84
2023-04-09T12:45:21.506Z,54.43
2023-04-09T12:47:24.682Z,54.53
2023-04-09T12:49:29.501Z,53.35
2023-04-09T12:51:32.759Z,54.30
2023-04-09T12:53:35.857Z,55.82
2023-04-09T12:55:40.413Z,54.06
2023-04-09T12:57:47.004Z,54.46
2023-04-09T12:59:51.643Z,53.50
2023-04-09T13:01:54.759Z,54.19
2023-04-09T13:03:58.243Z,55.05
2023-04-09T13:06:01.704Z,55.04
2023-04-09T13:08:04.950Z,55.33
2023-04-09T13:10:08.808Z,54.07
2023-04-09T13:12:12.636Z,54.70
2023-04-09T13:14:16.153Z,54.66
2023-04-09T13:16:21.145Z,54.26
2023-04-09T13:18:24.243Z,56.14
2023-04-09T13:20:27.366Z,55.07
2023-04-09T13:22:30.697Z,55.49
2023-04-09T13:24:33.741Z,55.16
2023-04-09T13:26:39.322Z,55.34
2023-04-09T13:28:42.391Z,53.96
2023-04-09T13:30:45.553Z,52.20
2023-04-09T13:32:50.113Z,55.08
2023-04-09T13:34:55.782Z,53.54
2023-04-09T13:36:58.839Z,52.57
2023-04-09T13:39:04.549Z,53.29
2023-04-09T13:41:07.818Z,51.50
2023-04-09T13:43:10.820Z,51.44
2023-04-09T13:45:13.914Z,50.46
2023-04-09T13:47:18.146Z,51.81
2023-04-09T13:49:22.785Z,53.71
2023-04-09T13:51:27.163Z,52.70
2023-04-09T13:53:30.224Z,52.53
2023-04-09T13:55:33.244Z,51.20
2023-04-09T13:57:36.585Z,51.66
2023-04-09T13:59:41.670Z,50.97
2023-04-09T14:01:45.038Z,53.48
2023-04-09T14:03:48.508Z,52.19
2023-04-09T14:05:53.081Z,51.51
2023-04-09T14:07:56.271Z,53.20
2023-04-09T14:09:59.460Z,51.96
2023-04-09T14:12:02.623Z,54.20
2023-04-09T14:14:05.976Z,55.15
2023-04-09T14:16:10.160Z,52.00
2023-04-09T14:18:13.302Z,52.66
2023-04-09T14:20:16.818Z,52.31
2023-04-09T14:22:21.267Z,54.04
2023-04-09T14:24:24.320Z,52.95
2023-04-09T14:26:29.033Z,54.41
2023-04-09T14:28:32.132Z,53.83
2023-04-09T14:30:36.237Z,53.98
2023-04-09T14:32:39.447Z,55.88
2023-04-09T14:34:42.698Z,55.02
2023-04-09T14:36:45.829Z,51.82
2023-04-09T14:38:50.392Z,53.92
2023-04-09T14:40:53.681Z,51.38
2023-04-09T14:42:56.895Z,52.17
2023-04-09T14:45:00.017Z,52.73
2023-04-09T14:47:03.646Z,53.57
2023-04-09T14:49:07.050Z,53.37
2023-04-09T14:51:10.750Z,53.59
2023-04-09T14:53:14.461Z,53.21
2023-04-09T14:55:19.088Z,52.98
2023-04-09T14:57:22.213Z,52.85
2023-04-09T14:59:25.738Z,53.29
2023-04-09T15:01:29.690Z,53.32
2023-04-09T15:03:33.676Z,52.86
2023-04-09T15:05:36.818Z,54.51
2023-04-09T15:07:39.957Z,52.28
2023-04-09T15:09:43.118Z,52.54
2023-04-09T15:11:47.630Z,54.51
2023-04-09T15:13:50.723Z,54.58
2023-04-09T15:15:54.044Z,53.32
2023-04-09T15:17:57.303Z,51.90
2023-04-09T15:20:00.595Z,53.98
2023-04-09T15:22:03.878Z,52.65
2023-04-09T15:24:07.002Z,52.68
2023-04-09T15:26:10.139Z,52.08
2023-04-09T15:28:15.007Z,53.54
2023-04-09T15:30:18.093Z,52.35
2023-04-09T15:32:22.202Z,51.40
2023-04-09T15:34:26.165Z,51.39
2023-04-09T15:36:31.574Z,53.71
2023-04-09T15:38:34.798Z,50.98
2023-04-09T15:40:37.938Z,52.83
2023-04-09T15:42:40.998Z,53.78
2023-04-09T15:44:45.829Z,53.90
2023-04-09T15:46:48.924Z,52.77
2023-04-09T15:48:52.220Z,50.71
2023-04-09T15:50:55.525Z,53.38
2023-04-09T15:52:58.722Z,50.55
2023-04-09T15:55:01.836Z,50.84
2023-04-09T15:57:05.113Z,52.56
2023-04-09T15:59:08.445Z,51.73
2023-04-09T16:01:13.655Z,50.62
2023-04-09T16:03:16.862Z,52.38
2023-04-09T16:05:20.123Z,52.15
2023-04-09T16:07:23.536Z,52.79
2023-04-09T16:09:26.730Z,52.85
2023-04-09T16:11:29.894Z,50.06
2023-04-09T16:13:32.985Z,52.28
2023-04-09T16:15:35.931Z,51.82
2023-04-09T16:17:41.225Z,51.92
2023-04-09T16:19:44.641Z,51.21
2023-04-09T16:21:47.773Z,52.69
2023-04-09T16:23:51.744Z,53.94
2023-04-09T16:25:55.409Z,53.42
2023-04-09T16:27:58.477Z,54.02
2023-04-09T16:30:01.926Z,54.46
2023-04-09T16:32:05.918Z,54.30
2023-04-09T16:34:10.445Z,54.21
2023-04-09T16:36:13.510Z,53.37
2023-04-09T16:38:16.643Z,53.19
2023-04-09T16:40:24.314Z,55.02
2023-04-09T16:42:28.066Z,54.04
2023-04-09T16:44:31.391Z,54.86
2023-04-09T16:46:34.494Z,54.49
2023-04-09T16:48:41.649Z,54.66
2023-04-09T16:50:46.072Z,54.09
2023-04-09T16:52:49.575Z,54.75
2023-04-09T16:54:52.778Z,54.48
2023-04-09T16:56:57.237Z,55.53
2023-04-09T16:59:00.502Z,54.07
2023-04-09T17:01:03.652Z,54.91
2023-04-09T17:03:07.042Z,54.74
2023-04-09T17:05:11.126Z,55.07
2023-04-09T17:07:15.986Z,54.82
2023-04-09T17:09:19.126Z,55.36
2023-04-09T17:11:23.656Z,55.05
2023-04-09T17:13:27.315Z,56.16
2023-04-09T17:15:30.410Z,56.35
2023-04-09T17:17:34.820Z,56.40
2023-04-09T17:19:38.182Z,56.08
2023-04-09T17:21:42.060Z,56.44
2023-04-09T17:23:46.630Z,56.06
2023-04-09T17:25:49.962Z,56.76
2023-04-09T17:27:53.405Z,56.74
2023-04-09T17:29:56.594Z,56.02
2023-04-09T17:31:59.997Z,56.76
2023-04-09T17:34:03.623Z,56.54
2023-04-09T17:36:07.150Z,56.29
2023-04-09T17:38:11.749Z,57.17
2023-04-09T17:40:18.670Z,57.04
2023-04-09T17:42:23.572Z,57.50
2023-04-09T17:44:26.662Z,57.76
2023-04-09T17:46:29.786Z,57.50
2023-04-09T17:48:33.032Z,57.62
2023-04-09T17:50:38.497Z,58.62
2023-04-09T17:52:41.568Z,58.94
2023-04-09T17:54:45.690Z,59.06
2023-04-09T17:56:50.286Z,58.61
2023-04-09T17:58:53.971Z,59.01
2023-04-09T18:00:58.721Z,58.37
2023-04-09T18:03:02.400Z,57.80
2023-04-09T18:05:06.279Z,58.60
2023-04-09T18:07:09.529Z,58.10
2023-04-09T18:09:12.971Z,60.20
2023-04-09T18:11:18.399Z,59.44
2023-04-09T18:13:23.005Z,58.64
2023-04-09T18:15:26.193Z,59.49
2023-04-09T18:17:29.394Z,60.47
2023-04-09T18:19:32.556Z,60.79
2023-04-09T18:21:36.934Z,61.20
2023-04-09T18:23:40.418Z,59.84
2023-04-09T18:25:43.617Z,60.07
2023-04-09T18:27:46.714Z,61.48
2023-04-09T18:29:51.418Z,61.42
2023-04-09T18:31:55.826Z,61.61
2023-04-09T18:33:59.004Z,62.93
2023-04-09T18:36:02.830Z,62.23
2023-04-09T18:38:06.157Z,62.53
2023-04-09T18:40:12.292Z,63.37
2023-04-09T18:42:15.471Z,62.63
2023-04-09T18:44:18.577Z,62.18
2023-04-09T18:46:23.799Z,62.37
2023-04-09T18:48:27.066Z,63.58
2023-04-09T18:50:30.152Z,64.22
2023-04-09T18:52:33.230Z,65.06
2023-04-09T18:54:37.478Z,65.11
2023-04-09T18:56:40.672Z,64.92
2023-04-09T18:58:43.910Z,64.79
2023-04-09T19:00:50.547Z,64.01
2023-04-09T19:02:54.994Z,64.33
2023-04-09T19:04:58.748Z,65.33
2023-04-09T19:07:02.420Z,65.13
2023-04-09T19:09:05.803Z,65.50
2023-04-09T19:11:09.110Z,65.00
2023-04-09T19:13:12.248Z,65.44
2023-04-09T19:15:16.202Z,64.33
2023-04-09T19:17:20.205Z,65.87
2023-04-09T19:19:24.648Z,63.84
2023-04-09T19:21:28.830Z,63.67
2023-04-09T19:23:34.197Z,66.09
2023-04-09T19:25:37.202Z,64.15
2023-04-09T19:27:40.716Z,65.18
2023-04-09T19:29:44.781Z,66.77
2023-04-09T19:31:47.832Z,66.03
2023-04-09T19:33:51.730Z,65.78
2023-04-09T19:35:56.990Z,66.73
2023-04-09T19:38:01.562Z,67.08
2023-04-09T19:40:06.835Z,65.90
2023-04-09T19:42:09.876Z,67.87
2023-04-09T19:44:13.154Z,68.02
2023-04-09T19:46:16.245Z,66.89
2023-04-09T19:48:19.364Z,66.96
2023-04-09T19:50:22.421Z,66.79
2023-04-09T19:52:27.441Z,66.54
2023-04-09T19:54:30.615Z,67.30
2023-04-09T19:56:34.177Z,65.95
2023-04-09T19:58:37.843Z,66.96
2023-04-09T20:00:41.695Z,66.85
2023-04-09T20:02:45.030Z,66.88
2023-04-09T20:04:48.510Z,67.83
2023-04-09T20:06:52.408Z,66.63
2023-04-09T20:08:56.972Z,67.17
2023-04-09T20:11:00.447Z,67.83
2023-04-09T20:13:03.887Z,68.42
2023-04-09T20:15:09.956Z,67.02
2023-04-09T20:17:13.684Z,67.53
2023-04-09T20:19:16.750Z,67.55
2023-04-09T20:21:19.848Z,68.38
2023-04-09T20:23:22.969Z,67.63
2023-04-09T20:25:33.909Z,68.95
2023-04-09T20:27:37.543Z,68.72
2023-04-09T20:29:40.842Z,69.62
2023-04-09T20:31:44.505Z,69.64
2023-04-09T20:33:47.995Z,70.33
2023-04-09T20:35:52.349Z,70.52
2023-04-09T20:37:55.759Z,70.71
2023-04-09T20:40:00.245Z,70.74
2023-04-09T20:42:04.963Z,70.78
2023-04-09T20:44:08.360Z,71.20
2023-04-09T20:46:12.079Z,71.68
2023-04-09T20:48:15.646Z,71.72
2023-04-09T20:50:19.523Z,71.73
2023-04-09T20:52:23.475Z,72.42
2023-04-09T20:54:27.477Z,72.57
2023-04-09T20:56:32.140Z,72.80
2023-04-09T20:58:36.892Z,72.67
2023-04-09T21:00:40.383Z,73.36
2023-04-09T21:02:43.576Z,73.07
2023-04-09T21:04:47.290Z,73.68
2023-04-09T21:06:50.448Z,73.80
2023-04-09T21:08:55.753Z,73.96
2023-04-09T21:10:59.581Z,74.59
2023-04-09T21:13:02.885Z,74.57
2023-04-09T21:15:08.709Z,74.08
2023-04-09T21:17:11.935Z,74.25
2023-04-09T21:19:15.598Z,75.00
2023-04-09T21:21:18.790Z,75.15
2023-04-09T21:23:21.903Z,74.56
2023-04-09T21:25:28.294Z,75.42
2023-04-09T21:27:31.567Z,74.97
2023-04-09T21:29:35.034Z,75.45
2023-04-09T21:31:39.645Z,75.86
2023-04-09T21:33:42.688Z,76.08
2023-04-09T21:35:45.922Z,75.54
2023-04-09T21:37:49.260Z,75.86
2023-04-09T21:39:53.115Z,75.56
2023-04-09T21:41:56.478Z,76.59
2023-04-09T21:44:03.583Z,76.64
2023-04-09T21:46:06.687Z,76.68
2023-04-09T21:48:11.434Z,77.09
2023-04-09T21:50:15.027Z,77.07
2023-04-09T21:52:18.213Z,77.53
2023-04-09T21:54:21.370Z,77.01
2023-04-09T21:56:24.560Z,77.42
2023-04-09T21:58:27.726Z,77.83
2023-04-09T22:00:30.847Z,76.95
2023-04-09T22:02:34.444Z,77.19
2023-04-09T22:04:42.539Z,76.14
2023-04-09T22:06:46.684Z,76.46
2023-04-09T22:08:56.248Z,77.41
2023-04-09T22:11:00.761Z,78.44
2023-04-09T22:13:04.169Z,78.28
2023-04-09T22:15:08.640Z,78.85
2023-04-09T22:17:11.751Z,77.33
2023-04-09T22:19:15.361Z,77.46
2023-04-09T22:21:20.156Z,78.29
2023-04-09T22:23:23.375Z,78.44
2023-04-09T22:25:26.853Z,78.65
2023-04-09T22:27:29.960Z,78.77
2023-04-09T22:29:33.866Z,79.28
2023-04-09T22:31:37.011Z,78.76
2023-04-09T22:33:40.536Z,79.43
2023-04-09T22:35:43.737Z,79.63
2023-04-09T22:37:48.292Z,78.81
2023-04-09T22:39:51.310Z,78.67
2023-04-09T22:41:54.564Z,78.40
2023-04-09T22:43:57.672Z,79.82
2023-04-09T22:46:01.567Z,79.56
2023-04-09T22:48:05.073Z,78.40
2023-04-09T22:50:09.506Z,79.76
2023-04-09T22:52:12.672Z,80.16
2023-04-09T22:54:17.092Z,79.13
2023-04-09T22:56:21.574Z,78.92
2023-04-09T22:58:24.710Z,78.53
2023-04-09T23:00:27.824Z,79.17
2023-04-09T23:02:31.594Z,79.22
2023-04-09T23:04:35.071Z,79.08
2023-04-09T23:06:38.233Z,79.24
2023-04-09T23:08:41.312Z,80.82
2023-04-09T23:10:45.751Z,80.84
2023-04-09T23:12:49.448Z,80.05
2023-04-09T23:14:52.719Z,80.80
2023-04-09T23:16:56.392Z,80.49
2023-04-09T23:18:59.408Z,80.10
2023-04-09T23:21:05.451Z,80.81
2023-04-09T23:23:08.774Z,79.99
2023-04-09T23:25:11.893Z,80.38
2023-04-09T23:27:16.268Z,81.33
2023-04-09T23:29:19.385Z,80.54
2023-04-09T23:31:22.551Z,80.43
2023-04-09T23:33:26.104Z,81.08
2023-04-09T23:35:29.251Z,81.28
2023-04-09T23:37:32.388Z,81.06
2023-04-09T23:39:35.573Z,81.32
2023-04-09T23:41:38.657Z,81.68
2023-04-09T23:43:43.330Z,81.16
2023-04-09T23:45:46.431Z,81.03
2023-04-09T23:47:49.501Z,81.12
2023-04-09T23:49:52.576Z,81.64
2023-04-09T23:51:55.615Z,81.18
2023-04-09T23:53:58.697Z,81.41
2023-04-09T23:56:01.807Z,81.11
2023-04-09T23:58:05.519Z,81.59
